X  CloseMetar Aviation Weather Data     KORD Chicago O'hare International

Temperature

32°F Temperature

28°F Dewpoint

87% Humidity



Wind

 5 MPH

 8 KM/H

 2 M/S

 4 KTS



200°
South South
West
Current Conditions

Partly Cloudy Partly Cloudy
Pressure 1017.32 (hPa) - 30.04 (in)
Visibility 10 (mi) - 16.1 (km)
Airport
Airport-code KORD

Location Chicago O'hare International 10 (mi)

Metar:
KORD 051451Z 20004KT 10SM FEW170 00/M02 A3004 RMK AO2 SLP178 T00001022 53014

Time: 12-05-2019 8:51